Mars — XPC8385 — position and weather

sailwx.info

Track history (hours):
 
Tides and Currents Weather Stations Pressure Air Temp Water Temp Dewpoint Dewpoint Depression Visibility Wind Speed Wind Dir Waves Ship Positions

Mars

Last reported at 2017-Jul-25 10:24 UTC. Time now 2017-Jul-25 10:40 UTC.
Position N 55°17' E 014°45'.

Length 14 m; draft 1.7 m.

Type: Pilot. MMSI: 219001058.

Date/timePositionNaut miles runAvg speedWind from/ knotsBaromVisibWave heightAir tempDewpointWater temp
2017-Jul-25 10:24N 55°17' E 014°45'0 0.0
2017-Jul-25 10:00N 55°17' E 014°45'0 0.0
2017-Jul-25 09:30N 55°17' E 014°45'0 0.0
2017-Jul-25 09:00N 55°17' E 014°45'0 0.0
2017-Jul-25 08:30N 55°17' E 014°45'0 0.0
2017-Jul-25 08:00N 55°17' E 014°45'0 0.0
2017-Jul-25 07:18N 55°17' E 014°45'0 0.0
2017-Jul-25 07:00N 55°17' E 014°45'0 0.0
2017-Jul-25 06:30N 55°17' E 014°45'0 0.0
2017-Jul-25 05:54N 55°17' E 014°45'3 6.6
2017-Jul-25 05:30N 55°15' E 014°42'2 3.7
2017-Jul-25 05:00N 55°16' E 014°44'1 1.3
2017-Jul-25 04:30N 55°17' E 014°45'0 0.0
2017-Jul-25 04:00N 55°17' E 014°45'0 0.0
2017-Jul-25 03:30N 55°17' E 014°45'0 0.0
2017-Jul-25 03:00N 55°17' E 014°45'0 0.0
2017-Jul-25 02:30N 55°17' E 014°45'0 0.0
2017-Jul-25 02:00N 55°17' E 014°45'0 0.0
2017-Jul-25 01:30N 55°17' E 014°45'0 0.0
2017-Jul-25 00:59N 55°17' E 014°45'0 0.0
2017-Jul-25 00:29N 55°17' E 014°45'0 0.0
2017-Jul-24 23:59N 55°17' E 014°45'0 0.0
2017-Jul-24 23:29N 55°17' E 014°45'0 0.0
2017-Jul-24 22:59N 55°17' E 014°45'0 0.0
2017-Jul-24 22:29N 55°17' E 014°45'0 0.0
2017-Jul-24 21:59N 55°17' E 014°45'0 0.0
2017-Jul-24 21:23N 55°17' E 014°45'0 0.0
2017-Jul-24 20:59N 55°17' E 014°45'0 0.0
2017-Jul-24 20:29N 55°17' E 014°45'0 0.0
2017-Jul-24 19:59N 55°17' E 014°45'0 0.0
2017-Jul-24 19:29N 55°17' E 014°45'2 1.8
2017-Jul-24 18:36N 55°17' E 014°48'0 0.0
2017-Jul-24 18:18N 55°17' E 014°48'0 0.0
2017-Jul-24 17:42N 55°17' E 014°48'0 0.0
2017-Jul-24 17:30N 55°17' E 014°48'0 0.0
2017-Jul-24 16:48N 55°17' E 014°48'0 0.0
2017-Jul-24 12:51N 55°17' E 014°48'0 0.0
2017-Jul-24 12:09N 55°17' E 014°48'0 0.0
2017-Jul-24 11:51N 55°17' E 014°48'0 0.0
2017-Jul-24 11:21N 55°17' E 014°48'0 0.0
2017-Jul-24 10:57N 55°17' E 014°48'0 0.0
2017-Jul-24 10:15N 55°17' E 014°48'0 0.0
2017-Jul-24 09:51N 55°17' E 014°48'0 0.0
2017-Jul-24 09:27N 55°17' E 014°48'0 0.0
2017-Jul-24 08:57N 55°17' E 014°48'2 5.0
2017-Jul-24 08:30N 55°15' E 014°50'0 0.0
2017-Jul-24 07:38N 55°15' E 014°50'1 8.0
2017-Jul-24 07:30N 55°16' E 014°50'1 1.7
2017-Jul-24 06:55N 55°15' E 014°50'0 0.0
2017-Jul-24 06:25N 55°15' E 014°50'0 0.0
2017-Jul-24 05:55N 55°15' E 014°50'0 0.0
2017-Jul-24 05:25N 55°15' E 014°50'0 0.0
2017-Jul-24 04:55N 55°15' E 014°50'0 0.0
2017-Jul-24 04:25N 55°15' E 014°50'0 0.0
2017-Jul-24 03:55N 55°15' E 014°50'0 0.0
2017-Jul-24 03:25N 55°15' E 014°50'0 0.0
2017-Jul-24 02:55N 55°15' E 014°50'0 0.0
2017-Jul-24 02:25N 55°15' E 014°50'0 0.0
2017-Jul-24 01:55N 55°15' E 014°50'0 0.0
2017-Jul-24 01:25N 55°15' E 014°50'0 0.0
2017-Jul-24 00:49N 55°15' E 014°50'0 0.0
2017-Jul-24 00:25N 55°15' E 014°50'0 0.0
2017-Jul-23 23:55N 55°15' E 014°50'0 0.0
2017-Jul-23 23:25N 55°15' E 014°50'0 0.0
2017-Jul-23 22:55N 55°15' E 014°50'0 0.0
2017-Jul-23 22:25N 55°15' E 014°50'0 0.0
2017-Jul-23 21:55N 55°15' E 014°50'0 0.0
2017-Jul-23 21:25N 55°15' E 014°50'0 0.0
2017-Jul-23 20:43N 55°15' E 014°50'0 0.0
2017-Jul-23 20:13N 55°15' E 014°50'0 0.0
2017-Jul-23 19:55N 55°15' E 014°50'0 0.0
2017-Jul-23 19:19N 55°15' E 014°50'0 0.0
2017-Jul-23 19:01N 55°15' E 014°50'0 0.0
2017-Jul-23 18:31N 55°15' E 014°50'0 0.0
2017-Jul-23 17:43N 55°15' E 014°50'0 0.0
2017-Jul-23 17:30N 55°15' E 014°50'1 1.7
2017-Jul-23 17:01N 55°16' E 014°50'1 1.6
2017-Jul-23 16:29N 55°15' E 014°50'0 0.0
2017-Jul-23 15:59N 55°15' E 014°50'0 0.0
2017-Jul-23 15:29N 55°15' E 014°50'0 0.0
2017-Jul-23 14:59N 55°15' E 014°50'0 0.0
2017-Jul-23 14:28N 55°15' E 014°50'0 0.0
2017-Jul-23 13:58N 55°15' E 014°50'0 0.0
2017-Jul-23 13:28N 55°15' E 014°50'0 0.0
2017-Jul-23 12:58N 55°15' E 014°50'0 0.0
2017-Jul-23 12:28N 55°15' E 014°50'0 0.0
2017-Jul-23 11:55N 55°15' E 014°50'0 0.0
2017-Jul-23 11:28N 55°15' E 014°50'0 0.0
2017-Jul-23 10:58N 55°15' E 014°50'0 0.0
2017-Jul-23 10:28N 55°15' E 014°50'0 0.0
2017-Jul-23 09:58N 55°15' E 014°50'0 0.0
2017-Jul-23 09:28N 55°15' E 014°50'0 0.0
2017-Jul-23 08:58N 55°15' E 014°50'0 0.0
2017-Jul-23 08:28N 55°15' E 014°50'0 0.0
2017-Jul-23 07:52N 55°15' E 014°50'0 0.0
2017-Jul-23 07:28N 55°15' E 014°50'0 0.0
2017-Jul-23 06:49N 55°15' E 014°50'0 0.0
2017-Jul-23 06:25N 55°15' E 014°50'0 0.0
2017-Jul-23 05:04N 55°15' E 014°50'0 0.0
2017-Jul-23 04:58N 55°15' E 014°50'0 0.0
2017-Jul-23 04:28N 55°15' E 014°50'0 0.0
2017-Jul-23 03:58N 55°15' E 014°50'0 0.0
2017-Jul-23 03:28N 55°15' E 014°50'0 0.0
2017-Jul-23 02:58N 55°15' E 014°50'0 0.0
2017-Jul-23 02:28N 55°15' E 014°50'0 0.0
2017-Jul-23 01:55N 55°15' E 014°50'0 0.0
2017-Jul-23 01:28N 55°15' E 014°50'0 0.0
2017-Jul-23 00:58N 55°15' E 014°50'0 0.0
2017-Jul-23 00:28N 55°15' E 014°50'0 0.0
2017-Jul-22 23:58N 55°15' E 014°50'0 0.0
2017-Jul-22 23:28N 55°15' E 014°50'0 0.0
2017-Jul-22 22:43N 55°15' E 014°50'0 0.0
2017-Jul-22 22:25N 55°15' E 014°50'0 0.0
2017-Jul-22 21:43N 55°15' E 014°50'0 0.0
2017-Jul-22 21:13N 55°15' E 014°50'0 0.0
2017-Jul-22 19:19N 55°15' E 014°50'0 0.0
2017-Jul-22 18:19N 55°15' E 014°50'0 0.0
2017-Jul-22 17:52N 55°15' E 014°50'0 0.0
2017-Jul-22 17:19N 55°15' E 014°50'0 0.0
2017-Jul-22 16:58N 55°15' E 014°50'0 0.0
2017-Jul-22 16:19N 55°15' E 014°50'0 0.0
2017-Jul-22 15:58N 55°15' E 014°50'0 0.0
2017-Jul-22 15:28N 55°15' E 014°50'0 0.0
2017-Jul-22 12:16N 55°15' E 014°50'0 0.0
2017-Jul-22 11:55N 55°15' E 014°50'0 0.0
2017-Jul-22 11:28N 55°15' E 014°50'0 0.0
2017-Jul-22 10:34N 55°15' E 014°50'0 0.0
2017-Jul-22 10:28N 55°15' E 014°50'0 0.0
2017-Jul-22 09:58N 55°15' E 014°50'0 0.0
2017-Jul-22 06:52N 55°15' E 014°50'0 0.0
2017-Jul-22 04:46N 55°15' E 014°50'0 0.0
2017-Jul-22 04:21N 55°15' E 014°50'0 0.0
2017-Jul-22 00:36N 55°15' E 014°50'0 0.0
2017-Jul-22 00:21N 55°15' E 014°50'0 0.0
2017-Jul-22 00:00N 55°15' E 014°50'0 0.0
2017-Jul-21 23:30N 55°15' E 014°50'0 0.0
2017-Jul-21 12:51N 55°15' E 014°50'0 0.0
2017-Jul-21 12:21N 55°15' E 014°50'0 0.0
2017-Jul-21 11:59N 55°15' E 014°50'4 8.1
2017-Jul-21 11:30N 55°19' E 014°51'4 7.5
2017-Jul-21 10:59N 55°15' E 014°50'0 0.5
2017-Jul-21 10:31N 55°15' E 014°50'4 8.8
2017-Jul-21 10:01N 55°19' E 014°46'5 9.2
2017-Jul-21 09:30N 55°15' E 014°50'0 0.0
2017-Jul-21 09:00N 55°15' E 014°50'0 0.0
2017-Jul-21 08:30N 55°15' E 014°50'0 0.0
2017-Jul-21 08:00N 55°15' E 014°50'0 0.0
2017-Jul-21 07:30N 55°15' E 014°50'1 1.7
2017-Jul-21 07:00N 55°16' E 014°50'1 1.6
2017-Jul-21 06:30N 55°15' E 014°50'0 0.0
2017-Jul-21 05:57N 55°15' E 014°50'0 0.0
2017-Jul-21 05:27N 55°15' E 014°50'0 0.0
2017-Jul-21 04:57N 55°15' E 014°50'0 0.0
2017-Jul-21 04:27N 55°15' E 014°50'0 0.0
2017-Jul-21 03:57N 55°15' E 014°50'0 0.0
2017-Jul-21 03:27N 55°15' E 014°50'0 0.0
2017-Jul-21 02:57N 55°15' E 014°50'0 0.0
2017-Jul-21 02:27N 55°15' E 014°50'0 0.0
2017-Jul-21 01:39N 55°15' E 014°50'0 0.0
2017-Jul-21 01:09N 55°15' E 014°50'0 0.0
2017-Jul-21 00:45N 55°15' E 014°50'0 0.0
2017-Jul-21 00:27N 55°15' E 014°50'0 0.0
2017-Jul-20 23:57N 55°15' E 014°50'0 0.0
2017-Jul-20 23:27N 55°15' E 014°50'0 0.0
2017-Jul-20 22:57N 55°15' E 014°50'0 0.0
2017-Jul-20 22:30N 55°15' E 014°50'0 0.0
2017-Jul-20 21:57N 55°15' E 014°50'0 0.0
2017-Jul-20 21:27N 55°15' E 014°50'0 0.0
2017-Jul-20 20:53N 55°15' E 014°50'0 0.0
2017-Jul-20 20:29N 55°15' E 014°50'0 0.0
2017-Jul-20 19:59N 55°15' E 014°50'0 0.0
2017-Jul-20 19:29N 55°15' E 014°50'0 0.0
2017-Jul-20 18:59N 55°15' E 014°50'0 0.0
2017-Jul-20 18:29N 55°15' E 014°50'0 0.0
2017-Jul-20 17:56N 55°15' E 014°50'0 0.0
2017-Jul-20 17:27N 55°15' E 014°50'0 0.0
2017-Jul-20 16:59N 55°15' E 014°50'0 0.0
2017-Jul-20 16:29N 55°15' E 014°50'0 0.0
2017-Jul-20 15:59N 55°15' E 014°50'0 0.0
2017-Jul-20 15:26N 55°15' E 014°50'0 0.0
2017-Jul-20 14:59N 55°15' E 014°50'0 0.0
2017-Jul-20 13:59N 55°15' E 014°50'0 0.0
2017-Jul-20 13:30N 55°15' E 014°50'4 7.1
2017-Jul-20 13:01N 55°18' E 014°52'4 6.7
2017-Jul-20 12:29N 55°15' E 014°50'0 0.0
2017-Jul-20 12:00N 55°15' E 014°50'0 0.0
2017-Jul-20 11:30N 55°15' E 014°50'0 0.0
2017-Jul-20 11:00N 55°15' E 014°50'0 0.0
2017-Jul-20 10:27N 55°15' E 014°50'0 0.0
2017-Jul-20 10:00N 55°15' E 014°50'0 0.0
2017-Jul-20 09:28N 55°15' E 014°50'0 0.0
2017-Jul-20 09:00N 55°15' E 014°50'0 0.0
2017-Jul-20 08:30N 55°15' E 014°50'0 0.0
2017-Jul-20 08:00N 55°15' E 014°50'0 0.0
2017-Jul-20 07:21N 55°15' E 014°50'0 0.0
2017-Jul-20 07:00N 55°15' E 014°50'0 0.0
2017-Jul-20 06:30N 55°15' E 014°50'0 0.0
2017-Jul-20 06:00N 55°15' E 014°50'0 0.0
2017-Jul-20 05:30N 55°15' E 014°50'0 0.0
2017-Jul-20 04:57N 55°15' E 014°50'0 0.0
2017-Jul-20 04:21N 55°15' E 014°50'0 0.0
2017-Jul-20 03:57N 55°15' E 014°50'0 0.0
2017-Jul-20 03:21N 55°15' E 014°50'0 0.0
2017-Jul-20 02:57N 55°15' E 014°50'2 4.3
2017-Jul-20 02:30N 55°17' E 014°49'1 1.3
2017-Jul-20 02:00N 55°17' E 014°49'2 3.8
2017-Jul-20 01:21N 55°15' E 014°50'0 0.0
2017-Jul-20 00:33N 55°15' E 014°50'0 0.0
2017-Jul-20 00:18N 55°15' E 014°50'0 0.0
2017-Jul-20 00:00N 55°15' E 014°50'0 0.0
2017-Jul-19 23:30N 55°15' E 014°50'0 0.0
2017-Jul-19 22:39N 55°15' E 014°50'0 0.0
2017-Jul-19 22:11N 55°15' E 014°50'2 8.9
2017-Jul-19 22:00N 55°16' E 014°49'3 7.0
2017-Jul-19 21:31N 55°20' E 014°48'5 8.0
2017-Jul-19 20:53N 55°15' E 014°50'0 0.0
2017-Jul-19 20:29N 55°15' E 014°50'0 0.0
2017-Jul-19 19:59N 55°15' E 014°50'0 0.0
2017-Jul-19 19:29N 55°15' E 014°50'0 0.0
2017-Jul-19 18:53N 55°15' E 014°50'0 0.0
2017-Jul-19 18:29N 55°15' E 014°50'0 0.0
2017-Jul-19 17:59N 55°15' E 014°50'0 0.0
2017-Jul-19 17:28N 55°15' E 014°50'0 0.0
2017-Jul-19 16:05N 55°15' E 014°50'0 0.0
2017-Jul-19 15:41N 55°15' E 014°50'2 9.3
2017-Jul-19 15:30N 55°16' E 014°49'2 4.8
2017-Jul-19 15:01N 55°18' E 014°46'4 6.4
2017-Jul-19 14:23N 55°15' E 014°50'0 0.0
2017-Jul-19 13:35N 55°15' E 014°50'0 0.0
2017-Jul-19 13:29N 55°15' E 014°50'1 1.2
2017-Jul-19 13:00N 55°15' E 014°50'2 4.5
2017-Jul-19 12:30N 55°17' E 014°48'3 3.9
2017-Jul-19 11:46N 55°15' E 014°50'0 0.0
2017-Jul-19 11:16N 55°15' E 014°50'0 0.0
2017-Jul-19 09:40N 55°15' E 014°50'0 0.0
2017-Jul-19 09:28N 55°15' E 014°50'0 0.0
2017-Jul-19 08:58N 55°15' E 014°50'0 0.0
2017-Jul-19 08:28N 55°15' E 014°50'0 0.0
2017-Jul-19 07:58N 55°15' E 014°50'0 0.0
2017-Jul-19 07:16N 55°15' E 014°50'0 0.0
2017-Jul-19 06:40N 55°15' E 014°50'0 0.0
2017-Jul-19 06:28N 55°15' E 014°50'0 0.0
2017-Jul-19 05:52N 55°15' E 014°50'0 0.0
2017-Jul-19 05:22N 55°15' E 014°50'0 0.0
2017-Jul-19 04:58N 55°15' E 014°50'0 0.0
2017-Jul-19 04:22N 55°15' E 014°50'0 0.0
2017-Jul-19 03:52N 55°15' E 014°50'0 0.0
2017-Jul-19 03:22N 55°15' E 014°50'0 0.0
2017-Jul-19 02:58N 55°15' E 014°50'0 0.0
2017-Jul-19 02:28N 55°15' E 014°50'0 0.0
2017-Jul-19 01:52N 55°15' E 014°50'0 0.0
2017-Jul-19 01:22N 55°15' E 014°50'0 0.0
2017-Jul-19 00:52N 55°15' E 014°50'0 0.0
2017-Jul-19 00:28N 55°15' E 014°50'0 0.0
2017-Jul-18 23:57N 55°15' E 014°50'0 0.0
2017-Jul-18 23:27N 55°15' E 014°50'0 0.0
2017-Jul-18 22:57N 55°15' E 014°50'0 0.0
2017-Jul-18 22:21N 55°15' E 014°50'0 0.0
2017-Jul-18 21:57N 55°15' E 014°50'0 0.0
2017-Jul-18 21:27N 55°15' E 014°50'0 0.0
2017-Jul-18 20:51N 55°15' E 014°50'0 0.0
2017-Jul-18 20:27N 55°15' E 014°50'0 0.0
2017-Jul-18 19:57N 55°15' E 014°50'0 0.0
2017-Jul-18 19:27N 55°15' E 014°50'0 0.0
2017-Jul-18 18:45N 55°15' E 014°50'0 0.0
2017-Jul-18 18:09N 55°15' E 014°50'0 0.0
2017-Jul-18 17:57N 55°15' E 014°50'0 0.0
2017-Jul-18 17:27N 55°15' E 014°50'0 0.0
2017-Jul-18 16:51N 55°15' E 014°50'0 0.0
2017-Jul-18 16:27N 55°15' E 014°50'0 0.0
2017-Jul-18 15:57N 55°15' E 014°50'0 0.0
2017-Jul-18 15:21N 55°15' E 014°50'0 0.0
2017-Jul-18 14:57N 55°15' E 014°50'0 0.0
2017-Jul-18 13:51N 55°15' E 014°50'0 0.0
2017-Jul-18 13:27N 55°15' E 014°50'0 0.0
2017-Jul-18 12:51N 55°15' E 014°50'0 0.0
2017-Jul-18 12:21N 55°15' E 014°50'0 0.0
2017-Jul-18 11:45N 55°15' E 014°50'0 0.0
2017-Jul-18 11:27N 55°15' E 014°50'0 0.0
2017-Jul-18 10:57N 55°15' E 014°50'0 0.0
2017-Jul-18 10:27N 55°15' E 014°50'0 0.0
2017-Jul-18 09:57N 55°15' E 014°50'0 0.0
2017-Jul-18 09:27N 55°15' E 014°50'0 0.0
2017-Jul-18 08:51N 55°15' E 014°50'0 0.0
2017-Jul-18 08:27N 55°15' E 014°50'0 0.0
2017-Jul-18 07:57N 55°15' E 014°50'0 0.0
2017-Jul-18 07:27N 55°15' E 014°50'0 0.0
2017-Jul-18 06:57N 55°15' E 014°50'0 0.0
2017-Jul-18 06:27N 55°15' E 014°50'0 0.0
2017-Jul-18 05:51N 55°15' E 014°50'0 0.0
2017-Jul-18 05:15N 55°15' E 014°50'0 0.0
2017-Jul-18 04:57N 55°15' E 014°50'0 0.0
2017-Jul-18 04:27N 55°15' E 014°50'0 0.0
2017-Jul-18 03:57N 55°15' E 014°50'0 0.0
2017-Jul-18 03:27N 55°15' E 014°50'0 0.0
2017-Jul-18 02:57N 55°15' E 014°50'0 0.0
2017-Jul-18 02:27N 55°15' E 014°50'0 0.0
2017-Jul-18 01:57N 55°15' E 014°50'0 0.0
2017-Jul-18 01:21N 55°15' E 014°50'0 0.0
2017-Jul-18 00:57N 55°15' E 014°50'0 0.0
2017-Jul-18 00:27N 55°15' E 014°50'0 0.0
2017-Jul-17 23:45N 55°15' E 014°50'0 0.0
2017-Jul-17 23:27N 55°15' E 014°50'0 0.0
2017-Jul-17 22:51N 55°15' E 014°50'0 0.0
2017-Jul-17 22:27N 55°15' E 014°50'0 0.0
2017-Jul-17 21:57N 55°15' E 014°50'0 0.0
2017-Jul-17 21:21N 55°15' E 014°50'0 0.0
2017-Jul-17 20:51N 55°15' E 014°50'0 0.0
2017-Jul-17 20:27N 55°15' E 014°50'0 0.0
2017-Jul-17 19:57N 55°15' E 014°50'0 0.0
2017-Jul-17 19:27N 55°15' E 014°50'0 0.0
2017-Jul-17 19:00N 55°15' E 014°50'0 0.0
2017-Jul-17 18:26N 55°15' E 014°50'0 0.0
2017-Jul-17 17:56N 55°15' E 014°50'0 0.0
2017-Jul-17 17:20N 55°15' E 014°50'0 0.0
2017-Jul-17 16:56N 55°15' E 014°50'0 0.0
2017-Jul-17 16:26N 55°15' E 014°50'0 0.0
2017-Jul-17 15:56N 55°15' E 014°50'0 0.0
2017-Jul-17 15:20N 55°15' E 014°50'0 0.0
2017-Jul-17 14:55N 55°15' E 014°50'0 0.0
2017-Jul-17 14:25N 55°15' E 014°50'0 0.0
2017-Jul-17 13:55N 55°15' E 014°50'0 0.0
2017-Jul-17 13:13N 55°15' E 014°50'0 0.0
2017-Jul-17 12:55N 55°15' E 014°50'0 0.0
2017-Jul-17 11:55N 55°15' E 014°50'0 0.0
2017-Jul-17 11:19N 55°15' E 014°50'0 0.0
2017-Jul-17 10:55N 55°15' E 014°50'0 0.0
2017-Jul-17 10:25N 55°15' E 014°50'0 0.0
2017-Jul-17 09:55N 55°15' E 014°50'0 0.0
2017-Jul-17 09:19N 55°15' E 014°50'0 0.0
2017-Jul-17 08:43N 55°15' E 014°50'0 0.0
2017-Jul-17 08:25N 55°15' E 014°50'0 0.0
2017-Jul-17 07:55N 55°15' E 014°50'0 0.0
2017-Jul-17 07:19N 55°15' E 014°50'0 0.0
2017-Jul-17 06:55N 55°15' E 014°50'0 0.0
2017-Jul-17 06:25N 55°15' E 014°50'0 0.0
2017-Jul-17 05:55N 55°15' E 014°50'0 0.0
2017-Jul-17 05:25N 55°15' E 014°50'0 0.0
2017-Jul-17 04:55N 55°15' E 014°50'0 0.0
2017-Jul-17 04:19N 55°15' E 014°50'0 0.0
2017-Jul-17 03:55N 55°15' E 014°50'3 7.1
2017-Jul-17 03:31N 55°18' E 014°50'3 5.8
2017-Jul-17 03:00N 55°15' E 014°50'0 0.0
2017-Jul-17 02:21N 55°15' E 014°50'0 0.0
2017-Jul-17 01:57N 55°15' E 014°50'0 0.0
2017-Jul-17 01:27N 55°15' E 014°50'0 0.0
2017-Jul-17 00:57N 55°15' E 014°50'0 0.0
2017-Jul-17 00:27N 55°15' E 014°50'0 0.0
2017-Jul-16 23:57N 55°15' E 014°50'0 0.0
2017-Jul-16 23:15N 55°15' E 014°50'0 0.0
2017-Jul-16 22:57N 55°15' E 014°50'0 0.0
2017-Jul-16 22:27N 55°15' E 014°50'0 0.0
2017-Jul-16 21:57N 55°15' E 014°50'0 0.0
2017-Jul-16 21:27N 55°15' E 014°50'0 0.0
2017-Jul-16 20:57N 55°15' E 014°50'2 4.8
2017-Jul-16 20:30N 55°17' E 014°48'2 4.0
2017-Jul-16 20:00N 55°15' E 014°50'0 0.3
2017-Jul-16 19:29N 55°15' E 014°50'0 0.0
2017-Jul-16 18:59N 55°15' E 014°50'0 0.0
2017-Jul-16 18:29N 55°15' E 014°50'0 0.0
2017-Jul-16 17:59N 55°15' E 014°50'0 0.0
2017-Jul-16 17:29N 55°15' E 014°50'0 0.0
2017-Jul-16 16:59N 55°15' E 014°50'0 0.0
2017-Jul-16 16:29N 55°15' E 014°50'0 0.0
2017-Jul-16 15:59N 55°15' E 014°50'0 0.0
2017-Jul-16 15:29N 55°15' E 014°50'0 0.0
2017-Jul-16 14:59N 55°15' E 014°50'0 0.0
2017-Jul-16 14:29N 55°15' E 014°50'0 0.0
2017-Jul-16 13:59N 55°15' E 014°50'0 0.0
2017-Jul-16 13:29N 55°15' E 014°50'0 0.0
2017-Jul-16 13:00N 55°15' E 014°50'5 9.2
2017-Jul-16 12:31N 55°19' E 014°53'4 7.2
2017-Jul-16 12:00N 55°17' E 014°48'1 2.9
2017-Jul-16 11:30N 55°16' E 014°50'1 1.4
2017-Jul-16 11:00N 55°15' E 014°50'0 0.0
2017-Jul-16 10:30N 55°15' E 014°50'0 0.0
2017-Jul-16 10:00N 55°15' E 014°50'0 0.0
2017-Jul-16 09:24N 55°15' E 014°50'0 0.0
2017-Jul-16 09:00N 55°15' E 014°50'0 0.0
2017-Jul-16 08:30N 55°15' E 014°50'0 0.0
2017-Jul-16 08:00N 55°15' E 014°50'0 0.0
2017-Jul-16 07:30N 55°15' E 014°50'0 0.0
2017-Jul-16 06:54N 55°15' E 014°50'0 0.0
2017-Jul-16 06:30N 55°15' E 014°50'0 0.0
2017-Jul-16 05:54N 55°15' E 014°50'0 0.0
2017-Jul-16 05:24N 55°15' E 014°50'0 0.0
2017-Jul-16 05:00N 55°15' E 014°50'0 0.0
2017-Jul-16 04:30N 55°15' E 014°50'0 0.0
2017-Jul-16 03:48N 55°15' E 014°50'0 0.0
2017-Jul-16 03:24N 55°15' E 014°50'0 0.0
2017-Jul-16 03:00N 55°15' E 014°50'0 0.0
2017-Jul-16 02:30N 55°15' E 014°50'0 0.0
2017-Jul-16 02:00N 55°15' E 014°50'0 0.0
2017-Jul-16 01:30N 55°15' E 014°50'0 0.0
2017-Jul-16 01:00N 55°15' E 014°50'0 0.0
2017-Jul-16 00:18N 55°15' E 014°50'0 0.0
2017-Jul-15 23:59N 55°15' E 014°50'0 0.0
2017-Jul-15 23:29N 55°15' E 014°50'0 0.0
2017-Jul-15 22:59N 55°15' E 014°50'0 0.0
2017-Jul-15 22:29N 55°15' E 014°50'0 0.0
2017-Jul-15 21:53N 55°15' E 014°50'0 0.0
2017-Jul-15 21:29N 55°15' E 014°50'0 0.0
2017-Jul-15 20:59N 55°15' E 014°50'0 0.0
2017-Jul-15 20:29N 55°15' E 014°50'0 0.0
2017-Jul-15 19:59N 55°15' E 014°50'0 0.0
2017-Jul-15 19:29N 55°15' E 014°50'0 0.0
2017-Jul-15 18:59N 55°15' E 014°50'0 0.0
2017-Jul-15 18:29N 55°15' E 014°50'0 0.0
2017-Jul-15 17:59N 55°15' E 014°50'0 0.0
2017-Jul-15 17:29N 55°15' E 014°50'0 0.0
2017-Jul-15 16:59N 55°15' E 014°50'0 0.0
2017-Jul-15 16:29N 55°15' E 014°50'0 0.0
2017-Jul-15 15:59N 55°15' E 014°50'0 0.0
2017-Jul-15 15:23N 55°15' E 014°50'0 0.0
2017-Jul-15 14:59N 55°15' E 014°50'0 0.0
2017-Jul-15 13:53N 55°15' E 014°50'0 0.0
2017-Jul-15 13:17N 55°15' E 014°50'0 0.0
2017-Jul-15 12:59N 55°15' E 014°50'0 0.0
2017-Jul-15 12:29N 55°15' E 014°50'0 0.0
2017-Jul-15 11:59N 55°15' E 014°50'0 0.0
2017-Jul-15 11:29N 55°15' E 014°50'0 0.0
2017-Jul-15 10:47N 55°15' E 014°50'0 0.0
2017-Jul-15 10:29N 55°15' E 014°50'  
Track history (hours):
 
Tides and Currents Weather Stations Pressure Air Temp Water Temp Dewpoint Dewpoint Depression Visibility Wind Speed Wind Dir Waves Ship Positions

Mars

Last reported at 2017-Jul-25 10:24 UTC. Time now 2017-Jul-25 10:40 UTC.
Position N 55°17' E 014°45'.

Length 14 m; draft 1.7 m.

Type: Pilot. MMSI: 219001058.

Date/timePositionNaut miles runAvg speedWind from/ knotsBaromVisibWave heightAir tempDewpointWater temp
2017-Jul-25 10:24N 55°17' E 014°45'0 0.0
2017-Jul-25 10:00N 55°17' E 014°45'0 0.0
2017-Jul-25 09:30N 55°17' E 014°45'0 0.0
2017-Jul-25 09:00N 55°17' E 014°45'0 0.0
2017-Jul-25 08:30N 55°17' E 014°45'0 0.0
2017-Jul-25 08:00N 55°17' E 014°45'0 0.0
2017-Jul-25 07:18N 55°17' E 014°45'0 0.0
2017-Jul-25 07:00N 55°17' E 014°45'0 0.0
2017-Jul-25 06:30N 55°17' E 014°45'0 0.0
2017-Jul-25 05:54N 55°17' E 014°45'3 6.6
2017-Jul-25 05:30N 55°15' E 014°42'2 3.7
2017-Jul-25 05:00N 55°16' E 014°44'1 1.3
2017-Jul-25 04:30N 55°17' E 014°45'0 0.0
2017-Jul-25 04:00N 55°17' E 014°45'0 0.0
2017-Jul-25 03:30N 55°17' E 014°45'0 0.0
2017-Jul-25 03:00N 55°17' E 014°45'0 0.0
2017-Jul-25 02:30N 55°17' E 014°45'0 0.0
2017-Jul-25 02:00N 55°17' E 014°45'0 0.0
2017-Jul-25 01:30N 55°17' E 014°45'0 0.0
2017-Jul-25 00:59N 55°17' E 014°45'0 0.0
2017-Jul-25 00:29N 55°17' E 014°45'0 0.0
2017-Jul-24 23:59N 55°17' E 014°45'0 0.0
2017-Jul-24 23:29N 55°17' E 014°45'0 0.0
2017-Jul-24 22:59N 55°17' E 014°45'0 0.0
2017-Jul-24 22:29N 55°17' E 014°45'0 0.0
2017-Jul-24 21:59N 55°17' E 014°45'0 0.0
2017-Jul-24 21:23N 55°17' E 014°45'0 0.0
2017-Jul-24 20:59N 55°17' E 014°45'0 0.0
2017-Jul-24 20:29N 55°17' E 014°45'0 0.0
2017-Jul-24 19:59N 55°17' E 014°45'0 0.0
2017-Jul-24 19:29N 55°17' E 014°45'2 1.8
2017-Jul-24 18:36N 55°17' E 014°48'0 0.0
2017-Jul-24 18:18N 55°17' E 014°48'0 0.0
2017-Jul-24 17:42N 55°17' E 014°48'0 0.0
2017-Jul-24 17:30N 55°17' E 014°48'0 0.0
2017-Jul-24 16:48N 55°17' E 014°48'0 0.0
2017-Jul-24 12:51N 55°17' E 014°48'0 0.0
2017-Jul-24 12:09N 55°17' E 014°48'0 0.0
2017-Jul-24 11:51N 55°17' E 014°48'0 0.0
2017-Jul-24 11:21N 55°17' E 014°48'0 0.0
2017-Jul-24 10:57N 55°17' E 014°48'0 0.0
2017-Jul-24 10:15N 55°17' E 014°48'0 0.0
2017-Jul-24 09:51N 55°17' E 014°48'0 0.0
2017-Jul-24 09:27N 55°17' E 014°48'0 0.0
2017-Jul-24 08:57N 55°17' E 014°48'2 5.0
2017-Jul-24 08:30N 55°15' E 014°50'0 0.0
2017-Jul-24 07:38N 55°15' E 014°50'1 8.0
2017-Jul-24 07:30N 55°16' E 014°50'1 1.7
2017-Jul-24 06:55N 55°15' E 014°50'0 0.0
2017-Jul-24 06:25N 55°15' E 014°50'0 0.0
2017-Jul-24 05:55N 55°15' E 014°50'0 0.0
2017-Jul-24 05:25N 55°15' E 014°50'0 0.0
2017-Jul-24 04:55N 55°15' E 014°50'0 0.0
2017-Jul-24 04:25N 55°15' E 014°50'0 0.0
2017-Jul-24 03:55N 55°15' E 014°50'0 0.0
2017-Jul-24 03:25N 55°15' E 014°50'0 0.0
2017-Jul-24 02:55N 55°15' E 014°50'0 0.0
2017-Jul-24 02:25N 55°15' E 014°50'0 0.0
2017-Jul-24 01:55N 55°15' E 014°50'0 0.0
2017-Jul-24 01:25N 55°15' E 014°50'0 0.0
2017-Jul-24 00:49N 55°15' E 014°50'0 0.0
2017-Jul-24 00:25N 55°15' E 014°50'0 0.0
2017-Jul-23 23:55N 55°15' E 014°50'0 0.0
2017-Jul-23 23:25N 55°15' E 014°50'0 0.0
2017-Jul-23 22:55N 55°15' E 014°50'0 0.0
2017-Jul-23 22:25N 55°15' E 014°50'0 0.0
2017-Jul-23 21:55N 55°15' E 014°50'0 0.0
2017-Jul-23 21:25N 55°15' E 014°50'0 0.0
2017-Jul-23 20:43N 55°15' E 014°50'0 0.0
2017-Jul-23 20:13N 55°15' E 014°50'0 0.0
2017-Jul-23 19:55N 55°15' E 014°50'0 0.0
2017-Jul-23 19:19N 55°15' E 014°50'0 0.0
2017-Jul-23 19:01N 55°15' E 014°50'0 0.0
2017-Jul-23 18:31N 55°15' E 014°50'0 0.0
2017-Jul-23 17:43N 55°15' E 014°50'0 0.0
2017-Jul-23 17:30N 55°15' E 014°50'1 1.7
2017-Jul-23 17:01N 55°16' E 014°50'1 1.6
2017-Jul-23 16:29N 55°15' E 014°50'0 0.0
2017-Jul-23 15:59N 55°15' E 014°50'0 0.0
2017-Jul-23 15:29N 55°15' E 014°50'0 0.0
2017-Jul-23 14:59N 55°15' E 014°50'0 0.0
2017-Jul-23 14:28N 55°15' E 014°50'0 0.0
2017-Jul-23 13:58N 55°15' E 014°50'0 0.0
2017-Jul-23 13:28N 55°15' E 014°50'0 0.0
2017-Jul-23 12:58N 55°15' E 014°50'0 0.0
2017-Jul-23 12:28N 55°15' E 014°50'0 0.0
2017-Jul-23 11:55N 55°15' E 014°50'0 0.0
2017-Jul-23 11:28N 55°15' E 014°50'0 0.0
2017-Jul-23 10:58N 55°15' E 014°50'0 0.0
2017-Jul-23 10:28N 55°15' E 014°50'0 0.0
2017-Jul-23 09:58N 55°15' E 014°50'0 0.0
2017-Jul-23 09:28N 55°15' E 014°50'0 0.0
2017-Jul-23 08:58N 55°15' E 014°50'0 0.0
2017-Jul-23 08:28N 55°15' E 014°50'0 0.0
2017-Jul-23 07:52N 55°15' E 014°50'0 0.0
2017-Jul-23 07:28N 55°15' E 014°50'0 0.0
2017-Jul-23 06:49N 55°15' E 014°50'0 0.0
2017-Jul-23 06:25N 55°15' E 014°50'0 0.0
2017-Jul-23 05:04N 55°15' E 014°50'0 0.0
2017-Jul-23 04:58N 55°15' E 014°50'0 0.0
2017-Jul-23 04:28N 55°15' E 014°50'0 0.0
2017-Jul-23 03:58N 55°15' E 014°50'0 0.0
2017-Jul-23 03:28N 55°15' E 014°50'0 0.0
2017-Jul-23 02:58N 55°15' E 014°50'0 0.0
2017-Jul-23 02:28N 55°15' E 014°50'0 0.0
2017-Jul-23 01:55N 55°15' E 014°50'0 0.0
2017-Jul-23 01:28N 55°15' E 014°50'0 0.0
2017-Jul-23 00:58N 55°15' E 014°50'0 0.0
2017-Jul-23 00:28N 55°15' E 014°50'0 0.0
2017-Jul-22 23:58N 55°15' E 014°50'0 0.0
2017-Jul-22 23:28N 55°15' E 014°50'0 0.0
2017-Jul-22 22:43N 55°15' E 014°50'0 0.0
2017-Jul-22 22:25N 55°15' E 014°50'0 0.0
2017-Jul-22 21:43N 55°15' E 014°50'0 0.0
2017-Jul-22 21:13N 55°15' E 014°50'0 0.0
2017-Jul-22 19:19N 55°15' E 014°50'0 0.0
2017-Jul-22 18:19N 55°15' E 014°50'0 0.0
2017-Jul-22 17:52N 55°15' E 014°50'0 0.0
2017-Jul-22 17:19N 55°15' E 014°50'0 0.0
2017-Jul-22 16:58N 55°15' E 014°50'0 0.0
2017-Jul-22 16:19N 55°15' E 014°50'0 0.0
2017-Jul-22 15:58N 55°15' E 014°50'0 0.0
2017-Jul-22 15:28N 55°15' E 014°50'0 0.0
2017-Jul-22 12:16N 55°15' E 014°50'0 0.0
2017-Jul-22 11:55N 55°15' E 014°50'0 0.0
2017-Jul-22 11:28N 55°15' E 014°50'0 0.0
2017-Jul-22 10:34N 55°15' E 014°50'0 0.0
2017-Jul-22 10:28N 55°15' E 014°50'0 0.0
2017-Jul-22 09:58N 55°15' E 014°50'0 0.0
2017-Jul-22 06:52N 55°15' E 014°50'0 0.0
2017-Jul-22 04:46N 55°15' E 014°50'0 0.0
2017-Jul-22 04:21N 55°15' E 014°50'0 0.0
2017-Jul-22 00:36N 55°15' E 014°50'0 0.0
2017-Jul-22 00:21N 55°15' E 014°50'0 0.0
2017-Jul-22 00:00N 55°15' E 014°50'0 0.0
2017-Jul-21 23:30N 55°15' E 014°50'0 0.0
2017-Jul-21 12:51N 55°15' E 014°50'0 0.0
2017-Jul-21 12:21N 55°15' E 014°50'0 0.0
2017-Jul-21 11:59N 55°15' E 014°50'4 8.1
2017-Jul-21 11:30N 55°19' E 014°51'4 7.5
2017-Jul-21 10:59N 55°15' E 014°50'0 0.5
2017-Jul-21 10:31N 55°15' E 014°50'4 8.8
2017-Jul-21 10:01N 55°19' E 014°46'5 9.2
2017-Jul-21 09:30N 55°15' E 014°50'0 0.0
2017-Jul-21 09:00N 55°15' E 014°50'0 0.0
2017-Jul-21 08:30N 55°15' E 014°50'0 0.0
2017-Jul-21 08:00N 55°15' E 014°50'0 0.0
2017-Jul-21 07:30N 55°15' E 014°50'1 1.7
2017-Jul-21 07:00N 55°16' E 014°50'1 1.6
2017-Jul-21 06:30N 55°15' E 014°50'0 0.0
2017-Jul-21 05:57N 55°15' E 014°50'0 0.0
2017-Jul-21 05:27N 55°15' E 014°50'0 0.0
2017-Jul-21 04:57N 55°15' E 014°50'0 0.0
2017-Jul-21 04:27N 55°15' E 014°50'0 0.0
2017-Jul-21 03:57N 55°15' E 014°50'0 0.0
2017-Jul-21 03:27N 55°15' E 014°50'0 0.0
2017-Jul-21 02:57N 55°15' E 014°50'0 0.0
2017-Jul-21 02:27N 55°15' E 014°50'0 0.0
2017-Jul-21 01:39N 55°15' E 014°50'0 0.0
2017-Jul-21 01:09N 55°15' E 014°50'0 0.0
2017-Jul-21 00:45N 55°15' E 014°50'0 0.0
2017-Jul-21 00:27N 55°15' E 014°50'0 0.0
2017-Jul-20 23:57N 55°15' E 014°50'0 0.0
2017-Jul-20 23:27N 55°15' E 014°50'0 0.0
2017-Jul-20 22:57N 55°15' E 014°50'0 0.0
2017-Jul-20 22:30N 55°15' E 014°50'0 0.0
2017-Jul-20 21:57N 55°15' E 014°50'0 0.0
2017-Jul-20 21:27N 55°15' E 014°50'0 0.0
2017-Jul-20 20:53N 55°15' E 014°50'0 0.0
2017-Jul-20 20:29N 55°15' E 014°50'0 0.0
2017-Jul-20 19:59N 55°15' E 014°50'0 0.0
2017-Jul-20 19:29N 55°15' E 014°50'0 0.0
2017-Jul-20 18:59N 55°15' E 014°50'0 0.0
2017-Jul-20 18:29N 55°15' E 014°50'0 0.0
2017-Jul-20 17:56N 55°15' E 014°50'0 0.0
2017-Jul-20 17:27N 55°15' E 014°50'0 0.0
2017-Jul-20 16:59N 55°15' E 014°50'0 0.0
2017-Jul-20 16:29N 55°15' E 014°50'0 0.0
2017-Jul-20 15:59N 55°15' E 014°50'0 0.0
2017-Jul-20 15:26N 55°15' E 014°50'0 0.0
2017-Jul-20 14:59N 55°15' E 014°50'0 0.0
2017-Jul-20 13:59N 55°15' E 014°50'0 0.0
2017-Jul-20 13:30N 55°15' E 014°50'4 7.1
2017-Jul-20 13:01N 55°18' E 014°52'4 6.7
2017-Jul-20 12:29N 55°15' E 014°50'0 0.0
2017-Jul-20 12:00N 55°15' E 014°50'0 0.0
2017-Jul-20 11:30N 55°15' E 014°50'0 0.0
2017-Jul-20 11:00N 55°15' E 014°50'0 0.0
2017-Jul-20 10:27N 55°15' E 014°50'0 0.0
2017-Jul-20 10:00N 55°15' E 014°50'0 0.0
2017-Jul-20 09:28N 55°15' E 014°50'0 0.0
2017-Jul-20 09:00N 55°15' E 014°50'0 0.0
2017-Jul-20 08:30N 55°15' E 014°50'0 0.0
2017-Jul-20 08:00N 55°15' E 014°50'0 0.0
2017-Jul-20 07:21N 55°15' E 014°50'0 0.0
2017-Jul-20 07:00N 55°15' E 014°50'0 0.0
2017-Jul-20 06:30N 55°15' E 014°50'0 0.0
2017-Jul-20 06:00N 55°15' E 014°50'0 0.0
2017-Jul-20 05:30N 55°15' E 014°50'0 0.0
2017-Jul-20 04:57N 55°15' E 014°50'0 0.0
2017-Jul-20 04:21N 55°15' E 014°50'0 0.0
2017-Jul-20 03:57N 55°15' E 014°50'0 0.0
2017-Jul-20 03:21N 55°15' E 014°50'0 0.0
2017-Jul-20 02:57N 55°15' E 014°50'2 4.3
2017-Jul-20 02:30N 55°17' E 014°49'1 1.3
2017-Jul-20 02:00N 55°17' E 014°49'2 3.8
2017-Jul-20 01:21N 55°15' E 014°50'0 0.0
2017-Jul-20 00:33N 55°15' E 014°50'0 0.0
2017-Jul-20 00:18N 55°15' E 014°50'0 0.0
2017-Jul-20 00:00N 55°15' E 014°50'0 0.0
2017-Jul-19 23:30N 55°15' E 014°50'0 0.0
2017-Jul-19 22:39N 55°15' E 014°50'0 0.0
2017-Jul-19 22:11N 55°15' E 014°50'2 8.9
2017-Jul-19 22:00N 55°16' E 014°49'3 7.0
2017-Jul-19 21:31N 55°20' E 014°48'5 8.0
2017-Jul-19 20:53N 55°15' E 014°50'0 0.0
2017-Jul-19 20:29N 55°15' E 014°50'0 0.0
2017-Jul-19 19:59N 55°15' E 014°50'0 0.0
2017-Jul-19 19:29N 55°15' E 014°50'0 0.0
2017-Jul-19 18:53N 55°15' E 014°50'0 0.0
2017-Jul-19 18:29N 55°15' E 014°50'0 0.0
2017-Jul-19 17:59N 55°15' E 014°50'0 0.0
2017-Jul-19 17:28N 55°15' E 014°50'0 0.0
2017-Jul-19 16:05N 55°15' E 014°50'0 0.0
2017-Jul-19 15:41N 55°15' E 014°50'2 9.3
2017-Jul-19 15:30N 55°16' E 014°49'2 4.8
2017-Jul-19 15:01N 55°18' E 014°46'4 6.4
2017-Jul-19 14:23N 55°15' E 014°50'0 0.0
2017-Jul-19 13:35N 55°15' E 014°50'0 0.0
2017-Jul-19 13:29N 55°15' E 014°50'1 1.2
2017-Jul-19 13:00N 55°15' E 014°50'2 4.5
2017-Jul-19 12:30N 55°17' E 014°48'3 3.9
2017-Jul-19 11:46N 55°15' E 014°50'0 0.0
2017-Jul-19 11:16N 55°15' E 014°50'0 0.0
2017-Jul-19 09:40N 55°15' E 014°50'0 0.0
2017-Jul-19 09:28N 55°15' E 014°50'0 0.0
2017-Jul-19 08:58N 55°15' E 014°50'0 0.0
2017-Jul-19 08:28N 55°15' E 014°50'0 0.0
2017-Jul-19 07:58N 55°15' E 014°50'0 0.0
2017-Jul-19 07:16N 55°15' E 014°50'0 0.0
2017-Jul-19 06:40N 55°15' E 014°50'0 0.0
2017-Jul-19 06:28N 55°15' E 014°50'0 0.0
2017-Jul-19 05:52N 55°15' E 014°50'0 0.0
2017-Jul-19 05:22N 55°15' E 014°50'0 0.0
2017-Jul-19 04:58N 55°15' E 014°50'0 0.0
2017-Jul-19 04:22N 55°15' E 014°50'0 0.0
2017-Jul-19 03:52N 55°15' E 014°50'0 0.0
2017-Jul-19 03:22N 55°15' E 014°50'0 0.0
2017-Jul-19 02:58N 55°15' E 014°50'0 0.0
2017-Jul-19 02:28N 55°15' E 014°50'0 0.0
2017-Jul-19 01:52N 55°15' E 014°50'0 0.0
2017-Jul-19 01:22N 55°15' E 014°50'0 0.0
2017-Jul-19 00:52N 55°15' E 014°50'0 0.0
2017-Jul-19 00:28N 55°15' E 014°50'0 0.0
2017-Jul-18 23:57N 55°15' E 014°50'0 0.0
2017-Jul-18 23:27N 55°15' E 014°50'0 0.0
2017-Jul-18 22:57N 55°15' E 014°50'0 0.0
2017-Jul-18 22:21N 55°15' E 014°50'0 0.0
2017-Jul-18 21:57N 55°15' E 014°50'0 0.0
2017-Jul-18 21:27N 55°15' E 014°50'0 0.0
2017-Jul-18 20:51N 55°15' E 014°50'0 0.0
2017-Jul-18 20:27N 55°15' E 014°50'0 0.0
2017-Jul-18 19:57N 55°15' E 014°50'0 0.0
2017-Jul-18 19:27N 55°15' E 014°50'0 0.0
2017-Jul-18 18:45N 55°15' E 014°50'0 0.0
2017-Jul-18 18:09N 55°15' E 014°50'0 0.0
2017-Jul-18 17:57N 55°15' E 014°50'0 0.0
2017-Jul-18 17:27N 55°15' E 014°50'0 0.0
2017-Jul-18 16:51N 55°15' E 014°50'0 0.0
2017-Jul-18 16:27N 55°15' E 014°50'0 0.0
2017-Jul-18 15:57N 55°15' E 014°50'0 0.0
2017-Jul-18 15:21N 55°15' E 014°50'0 0.0
2017-Jul-18 14:57N 55°15' E 014°50'0 0.0
2017-Jul-18 13:51N 55°15' E 014°50'0 0.0
2017-Jul-18 13:27N 55°15' E 014°50'0 0.0
2017-Jul-18 12:51N 55°15' E 014°50'0 0.0
2017-Jul-18 12:21N 55°15' E 014°50'0 0.0
2017-Jul-18 11:45N 55°15' E 014°50'0 0.0
2017-Jul-18 11:27N 55°15' E 014°50'0 0.0
2017-Jul-18 10:57N 55°15' E 014°50'0 0.0
2017-Jul-18 10:27N 55°15' E 014°50'0 0.0
2017-Jul-18 09:57N 55°15' E 014°50'0 0.0
2017-Jul-18 09:27N 55°15' E 014°50'0 0.0
2017-Jul-18 08:51N 55°15' E 014°50'0 0.0
2017-Jul-18 08:27N 55°15' E 014°50'0 0.0
2017-Jul-18 07:57N 55°15' E 014°50'0 0.0
2017-Jul-18 07:27N 55°15' E 014°50'0 0.0
2017-Jul-18 06:57N 55°15' E 014°50'0 0.0
2017-Jul-18 06:27N 55°15' E 014°50'0 0.0
2017-Jul-18 05:51N 55°15' E 014°50'0 0.0
2017-Jul-18 05:15N 55°15' E 014°50'0 0.0
2017-Jul-18 04:57N 55°15' E 014°50'0 0.0
2017-Jul-18 04:27N 55°15' E 014°50'0 0.0
2017-Jul-18 03:57N 55°15' E 014°50'0 0.0
2017-Jul-18 03:27N 55°15' E 014°50'0 0.0
2017-Jul-18 02:57N 55°15' E 014°50'0 0.0
2017-Jul-18 02:27N 55°15' E 014°50'0 0.0
2017-Jul-18 01:57N 55°15' E 014°50'0 0.0
2017-Jul-18 01:21N 55°15' E 014°50'0 0.0
2017-Jul-18 00:57N 55°15' E 014°50'0 0.0
2017-Jul-18 00:27N 55°15' E 014°50'0 0.0
2017-Jul-17 23:45N 55°15' E 014°50'0 0.0
2017-Jul-17 23:27N 55°15' E 014°50'0 0.0
2017-Jul-17 22:51N 55°15' E 014°50'0 0.0
2017-Jul-17 22:27N 55°15' E 014°50'0 0.0
2017-Jul-17 21:57N 55°15' E 014°50'0 0.0
2017-Jul-17 21:21N 55°15' E 014°50'0 0.0
2017-Jul-17 20:51N 55°15' E 014°50'0 0.0
2017-Jul-17 20:27N 55°15' E 014°50'0 0.0
2017-Jul-17 19:57N 55°15' E 014°50'0 0.0
2017-Jul-17 19:27N 55°15' E 014°50'0 0.0
2017-Jul-17 19:00N 55°15' E 014°50'0 0.0
2017-Jul-17 18:26N 55°15' E 014°50'0 0.0
2017-Jul-17 17:56N 55°15' E 014°50'0 0.0
2017-Jul-17 17:20N 55°15' E 014°50'0 0.0
2017-Jul-17 16:56N 55°15' E 014°50'0 0.0
2017-Jul-17 16:26N 55°15' E 014°50'0 0.0
2017-Jul-17 15:56N 55°15' E 014°50'0 0.0
2017-Jul-17 15:20N 55°15' E 014°50'0 0.0
2017-Jul-17 14:55N 55°15' E 014°50'0 0.0
2017-Jul-17 14:25N 55°15' E 014°50'0 0.0
2017-Jul-17 13:55N 55°15' E 014°50'0 0.0
2017-Jul-17 13:13N 55°15' E 014°50'0 0.0
2017-Jul-17 12:55N 55°15' E 014°50'0 0.0
2017-Jul-17 11:55N 55°15' E 014°50'0 0.0
2017-Jul-17 11:19N 55°15' E 014°50'0 0.0
2017-Jul-17 10:55N 55°15' E 014°50'0 0.0
2017-Jul-17 10:25N 55°15' E 014°50'0 0.0
2017-Jul-17 09:55N 55°15' E 014°50'0 0.0
2017-Jul-17 09:19N 55°15' E 014°50'0 0.0
2017-Jul-17 08:43N 55°15' E 014°50'0 0.0
2017-Jul-17 08:25N 55°15' E 014°50'0 0.0
2017-Jul-17 07:55N 55°15' E 014°50'0 0.0
2017-Jul-17 07:19N 55°15' E 014°50'0 0.0
2017-Jul-17 06:55N 55°15' E 014°50'0 0.0
2017-Jul-17 06:25N 55°15' E 014°50'0 0.0
2017-Jul-17 05:55N 55°15' E 014°50'0 0.0
2017-Jul-17 05:25N 55°15' E 014°50'0 0.0
2017-Jul-17 04:55N 55°15' E 014°50'0 0.0
2017-Jul-17 04:19N 55°15' E 014°50'0 0.0
2017-Jul-17 03:55N 55°15' E 014°50'3 7.1
2017-Jul-17 03:31N 55°18' E 014°50'3 5.8
2017-Jul-17 03:00N 55°15' E 014°50'0 0.0
2017-Jul-17 02:21N 55°15' E 014°50'0 0.0
2017-Jul-17 01:57N 55°15' E 014°50'0 0.0
2017-Jul-17 01:27N 55°15' E 014°50'0 0.0
2017-Jul-17 00:57N 55°15' E 014°50'0 0.0
2017-Jul-17 00:27N 55°15' E 014°50'0 0.0
2017-Jul-16 23:57N 55°15' E 014°50'0 0.0
2017-Jul-16 23:15N 55°15' E 014°50'0 0.0
2017-Jul-16 22:57N 55°15' E 014°50'0 0.0
2017-Jul-16 22:27N 55°15' E 014°50'0 0.0
2017-Jul-16 21:57N 55°15' E 014°50'0 0.0
2017-Jul-16 21:27N 55°15' E 014°50'0 0.0
2017-Jul-16 20:57N 55°15' E 014°50'2 4.8
2017-Jul-16 20:30N 55°17' E 014°48'2 4.0
2017-Jul-16 20:00N 55°15' E 014°50'0 0.3
2017-Jul-16 19:29N 55°15' E 014°50'0 0.0
2017-Jul-16 18:59N 55°15' E 014°50'0 0.0
2017-Jul-16 18:29N 55°15' E 014°50'0 0.0
2017-Jul-16 17:59N 55°15' E 014°50'0 0.0
2017-Jul-16 17:29N 55°15' E 014°50'0 0.0
2017-Jul-16 16:59N 55°15' E 014°50'0 0.0
2017-Jul-16 16:29N 55°15' E 014°50'0 0.0
2017-Jul-16 15:59N 55°15' E 014°50'0 0.0
2017-Jul-16 15:29N 55°15' E 014°50'0 0.0
2017-Jul-16 14:59N 55°15' E 014°50'0 0.0
2017-Jul-16 14:29N 55°15' E 014°50'0 0.0
2017-Jul-16 13:59N 55°15' E 014°50'0 0.0
2017-Jul-16 13:29N 55°15' E 014°50'0 0.0
2017-Jul-16 13:00N 55°15' E 014°50'5 9.2
2017-Jul-16 12:31N 55°19' E 014°53'4 7.2
2017-Jul-16 12:00N 55°17' E 014°48'1 2.9
2017-Jul-16 11:30N 55°16' E 014°50'1 1.4
2017-Jul-16 11:00N 55°15' E 014°50'0 0.0
2017-Jul-16 10:30N 55°15' E 014°50'0 0.0
2017-Jul-16 10:00N 55°15' E 014°50'0 0.0
2017-Jul-16 09:24N 55°15' E 014°50'0 0.0
2017-Jul-16 09:00N 55°15' E 014°50'0 0.0
2017-Jul-16 08:30N 55°15' E 014°50'0 0.0
2017-Jul-16 08:00N 55°15' E 014°50'0 0.0
2017-Jul-16 07:30N 55°15' E 014°50'0 0.0
2017-Jul-16 06:54N 55°15' E 014°50'0 0.0
2017-Jul-16 06:30N 55°15' E 014°50'0 0.0
2017-Jul-16 05:54N 55°15' E 014°50'0 0.0
2017-Jul-16 05:24N 55°15' E 014°50'0 0.0
2017-Jul-16 05:00N 55°15' E 014°50'0 0.0
2017-Jul-16 04:30N 55°15' E 014°50'0 0.0
2017-Jul-16 03:48N 55°15' E 014°50'0 0.0
2017-Jul-16 03:24N 55°15' E 014°50'0 0.0
2017-Jul-16 03:00N 55°15' E 014°50'0 0.0
2017-Jul-16 02:30N 55°15' E 014°50'0 0.0
2017-Jul-16 02:00N 55°15' E 014°50'0 0.0
2017-Jul-16 01:30N 55°15' E 014°50'0 0.0
2017-Jul-16 01:00N 55°15' E 014°50'0 0.0
2017-Jul-16 00:18N 55°15' E 014°50'0 0.0
2017-Jul-15 23:59N 55°15' E 014°50'0 0.0
2017-Jul-15 23:29N 55°15' E 014°50'0 0.0
2017-Jul-15 22:59N 55°15' E 014°50'0 0.0
2017-Jul-15 22:29N 55°15' E 014°50'0 0.0
2017-Jul-15 21:53N 55°15' E 014°50'0 0.0
2017-Jul-15 21:29N 55°15' E 014°50'0 0.0
2017-Jul-15 20:59N 55°15' E 014°50'0 0.0
2017-Jul-15 20:29N 55°15' E 014°50'0 0.0
2017-Jul-15 19:59N 55°15' E 014°50'0 0.0
2017-Jul-15 19:29N 55°15' E 014°50'0 0.0
2017-Jul-15 18:59N 55°15' E 014°50'0 0.0
2017-Jul-15 18:29N 55°15' E 014°50'0 0.0
2017-Jul-15 17:59N 55°15' E 014°50'0 0.0
2017-Jul-15 17:29N 55°15' E 014°50'0 0.0
2017-Jul-15 16:59N 55°15' E 014°50'0 0.0
2017-Jul-15 16:29N 55°15' E 014°50'0 0.0
2017-Jul-15 15:59N 55°15' E 014°50'0 0.0
2017-Jul-15 15:23N 55°15' E 014°50'0 0.0
2017-Jul-15 14:59N 55°15' E 014°50'0 0.0
2017-Jul-15 13:53N 55°15' E 014°50'0 0.0
2017-Jul-15 13:17N 55°15' E 014°50'0 0.0
2017-Jul-15 12:59N 55°15' E 014°50'0 0.0
2017-Jul-15 12:29N 55°15' E 014°50'0 0.0
2017-Jul-15 11:59N 55°15' E 014°50'0 0.0
2017-Jul-15 11:29N 55°15' E 014°50'0 0.0
2017-Jul-15 10:47N 55°15' E 014°50'0 0.0
2017-Jul-15 10:29N 55°15' E 014°50'  

Dump ship's entire track history